createdAt,value
2022-10-06T00:04:07.958Z,0.74
2022-10-06T00:09:14.935Z,0.42
2022-10-06T00:14:22.045Z,0.32
2022-10-06T00:19:28.972Z,0.30
2022-10-06T00:24:36.125Z,0.39
2022-10-06T00:29:43.023Z,1.07
2022-10-06T00:34:50.081Z,2.63
2022-10-06T00:39:56.977Z,2.28
2022-10-06T00:45:04.162Z,1.04
2022-10-06T00:50:11.080Z,0.29
2022-10-06T00:55:18.119Z,0.52
2022-10-06T01:00:25.060Z,2.23
2022-10-06T01:05:32.065Z,0.42
2022-10-06T01:10:39.001Z,0.89
2022-10-06T01:15:46.082Z,0.67
2022-10-06T01:20:52.960Z,1.11
2022-10-06T01:25:59.935Z,0.46
2022-10-06T01:31:06.958Z,1.40
2022-10-06T01:36:13.986Z,2.49
2022-10-06T01:41:20.887Z,0.55
2022-10-06T01:46:28.155Z,0.55
2022-10-06T01:51:35.008Z,2.44
2022-10-06T01:56:42.166Z,0.49
2022-10-06T02:01:49.190Z,0.97
2022-10-06T02:06:56.292Z,0.42
2022-10-06T02:12:03.248Z,2.43
2022-10-06T02:17:10.435Z,3.25
2022-10-06T02:22:17.341Z,1.23
2022-10-06T02:27:24.339Z,1.35
2022-10-06T02:32:31.296Z,0.93
2022-10-06T02:37:38.390Z,1.51
2022-10-06T02:42:45.438Z,0.77
2022-10-06T02:47:52.471Z,1.03
2022-10-06T02:52:59.484Z,0.96
2022-10-06T02:58:06.591Z,2.29
2022-10-06T03:03:13.688Z,0.79
2022-10-06T03:08:20.781Z,1.26
2022-10-06T03:13:27.791Z,1.51
2022-10-06T03:18:34.951Z,1.24
2022-10-06T03:23:41.983Z,0.69
2022-10-06T03:28:49.140Z,1.04
2022-10-06T03:33:56.039Z,0.76
2022-10-06T03:39:03.112Z,0.85
2022-10-06T03:44:10.074Z,1.54
2022-10-06T03:49:17.185Z,1.54
2022-10-06T03:54:24.130Z,1.58
2022-10-06T03:59:31.290Z,0.69
2022-10-06T04:04:38.273Z,1.52
2022-10-06T04:09:45.389Z,1.74
2022-10-06T04:14:55.312Z,1.67
2022-10-06T04:19:59.064Z,3.00
2022-10-06T04:25:06.079Z,1.70
2022-10-06T04:30:13.380Z,1.42
2022-10-06T04:35:20.273Z,0.95
2022-10-06T04:40:27.371Z,1.92
2022-10-06T04:45:34.375Z,1.59
2022-10-06T04:50:41.385Z,2.43
2022-10-06T04:55:48.336Z,1.82
2022-10-06T05:00:55.528Z,2.41
2022-10-06T05:06:02.439Z,1.19
2022-10-06T05:11:13.659Z,2.05
2022-10-06T05:16:16.168Z,3.84
2022-10-06T05:21:23.168Z,2.09
2022-10-06T05:26:30.052Z,3.88
2022-10-06T05:31:37.146Z,2.94
2022-10-06T05:36:44.077Z,3.51
2022-10-06T05:41:51.194Z,1.64
2022-10-06T05:46:58.088Z,1.84
2022-10-06T05:52:05.158Z,3.33
2022-10-06T05:57:12.088Z,4.94
2022-10-06T06:02:19.260Z,2.69
2022-10-06T06:07:26.188Z,3.70
2022-10-06T06:12:33.427Z,2.99
2022-10-06T06:17:40.366Z,2.31
2022-10-06T06:22:47.421Z,1.68
2022-10-06T06:27:54.427Z,5.87
2022-10-06T06:33:01.766Z,1.20
2022-10-06T06:38:08.833Z,3.17
2022-10-06T06:43:15.905Z,2.79
2022-10-06T06:48:23.405Z,1.64
2022-10-06T06:53:30.428Z,2.48
2022-10-06T06:58:37.376Z,1.59
2022-10-06T07:03:57.223Z,5.06
2022-10-06T07:08:51.156Z,2.18
2022-10-06T07:13:58.244Z,3.08
2022-10-06T07:19:05.163Z,4.52
2022-10-06T07:24:12.696Z,4.89
2022-10-06T07:29:21.056Z,2.53
2022-10-06T07:34:28.199Z,3.19
2022-10-06T07:39:35.215Z,5.24
2022-10-06T07:44:42.528Z,2.97
2022-10-06T07:49:49.714Z,4.31
2022-10-06T07:54:57.085Z,2.58
2022-10-06T08:00:03.976Z,2.57
2022-10-06T08:05:11.088Z,8.01
2022-10-06T08:10:18.086Z,4.67
2022-10-06T08:15:25.103Z,2.66
2022-10-06T08:20:32.119Z,4.06
2022-10-06T08:25:39.337Z,6.02
2022-10-06T08:30:46.261Z,2.66
2022-10-06T08:35:53.349Z,5.30
2022-10-06T08:41:00.324Z,5.31
2022-10-06T08:46:07.413Z,5.56
2022-10-06T08:51:14.328Z,8.25
2022-10-06T08:56:21.451Z,3.85
2022-10-06T09:01:28.448Z,3.80
2022-10-06T09:06:35.435Z,5.81
2022-10-06T09:11:42.387Z,2.39
2022-10-06T09:16:49.515Z,2.02
2022-10-06T09:21:56.459Z,4.65
2022-10-06T09:27:03.475Z,3.32
2022-10-06T09:32:10.366Z,3.31
2022-10-06T09:37:17.364Z,5.60
2022-10-06T09:42:24.281Z,4.00
2022-10-06T09:47:31.434Z,3.70
2022-10-06T09:52:38.332Z,1.17
2022-10-06T09:57:45.385Z,2.68
2022-10-06T10:02:52.324Z,4.25
2022-10-06T10:07:59.359Z,10.29
2022-10-06T10:13:06.324Z,8.88
2022-10-06T10:18:13.457Z,4.01
2022-10-06T10:23:20.425Z,3.79
2022-10-06T10:28:27.563Z,3.41
2022-10-06T10:33:34.463Z,5.04
2022-10-06T10:38:41.657Z,6.10
2022-10-06T10:43:48.606Z,2.23
2022-10-06T10:48:55.679Z,2.69
2022-10-06T10:54:02.566Z,1.63
2022-10-06T10:59:09.610Z,1.55
2022-10-06T11:04:16.556Z,2.14
2022-10-06T11:09:23.601Z,2.06
2022-10-06T11:14:30.587Z,2.91
2022-10-06T11:19:37.671Z,3.66
2022-10-06T11:24:44.570Z,1.22
2022-10-06T11:29:51.762Z,2.14
2022-10-06T11:34:58.672Z,3.70
2022-10-06T11:40:05.860Z,0.89
2022-10-06T11:45:12.765Z,3.63
2022-10-06T11:50:19.900Z,2.92
2022-10-06T11:55:26.840Z,0.69
2022-10-06T12:00:33.957Z,2.24
2022-10-06T12:05:56.797Z,1.96
2022-10-06T12:10:47.663Z,3.13
2022-10-06T12:21:01.445Z,2.48
2022-10-06T12:26:08.300Z,1.39
2022-10-06T12:31:18.250Z,2.45
2022-10-06T12:36:21.889Z,2.78
2022-10-06T12:41:28.994Z,2.17
2022-10-06T12:46:35.975Z,1.31
2022-10-06T12:51:43.021Z,2.88
2022-10-06T12:56:49.957Z,4.69
2022-10-06T13:01:57.081Z,3.02
2022-10-06T13:07:08.504Z,3.54
2022-10-06T13:12:10.814Z,4.34
2022-10-06T13:17:17.764Z,1.73
2022-10-06T13:22:24.832Z,2.82
2022-10-06T13:27:31.724Z,3.42
2022-10-06T13:32:38.809Z,2.81
2022-10-06T13:37:45.743Z,3.75
2022-10-06T13:42:52.847Z,4.82
2022-10-06T13:47:59.750Z,3.01
2022-10-06T13:53:06.985Z,3.13
2022-10-06T13:58:13.917Z,2.04
2022-10-06T14:03:21.504Z,3.82
2022-10-06T14:08:28.341Z,3.53
2022-10-06T14:13:35.405Z,4.79
2022-10-06T14:18:42.345Z,3.95
2022-10-06T14:23:49.257Z,3.19
2022-10-06T14:28:56.201Z,3.77
2022-10-06T14:34:03.102Z,2.73
2022-10-06T14:39:10.197Z,2.18
2022-10-06T14:44:17.145Z,3.35
2022-10-06T14:49:24.267Z,3.46
2022-10-06T14:54:31.241Z,4.20
2022-10-06T14:59:38.339Z,3.47
2022-10-06T15:04:45.274Z,3.16
2022-10-06T15:09:52.397Z,2.29
2022-10-06T15:14:59.305Z,3.41
2022-10-06T15:20:06.247Z,2.72
2022-10-06T15:25:13.187Z,3.58
2022-10-06T15:30:20.375Z,4.82
2022-10-06T15:35:27.291Z,4.76
2022-10-06T15:40:34.377Z,3.61
2022-10-06T15:45:41.288Z,4.52
2022-10-06T15:50:48.422Z,5.44
2022-10-06T15:55:55.391Z,3.58
2022-10-06T16:01:02.436Z,4.10
2022-10-06T16:06:09.346Z,4.52
2022-10-06T16:11:16.404Z,5.33
2022-10-06T16:16:23.328Z,5.80
2022-10-06T16:21:30.259Z,4.17
2022-10-06T16:26:37.321Z,7.67
2022-10-06T16:31:44.401Z,6.67
2022-10-06T16:36:51.309Z,4.22
2022-10-06T16:41:58.234Z,5.81
2022-10-06T16:47:05.253Z,5.55
2022-10-06T16:52:12.111Z,7.41
2022-10-06T16:57:19.230Z,6.37
2022-10-06T17:02:26.157Z,5.72
2022-10-06T17:07:33.245Z,6.03
2022-10-06T17:12:40.340Z,5.88
2022-10-06T17:17:47.180Z,6.52
2022-10-06T17:22:54.140Z,5.91
2022-10-06T17:28:01.257Z,6.67
2022-10-06T17:33:08.147Z,8.14
2022-10-06T17:38:15.258Z,6.38
2022-10-06T17:43:22.275Z,10.68
2022-10-06T17:48:29.375Z,10.76
2022-10-06T17:53:36.361Z,7.11
2022-10-06T17:58:43.464Z,6.65
2022-10-06T18:03:50.412Z,6.48
2022-10-06T18:08:57.408Z,9.02
2022-10-06T18:14:04.381Z,7.52
2022-10-06T18:19:11.610Z,6.77
2022-10-06T18:24:18.613Z,4.54
2022-10-06T18:29:25.652Z,7.06
2022-10-06T18:39:39.239Z,4.76
2022-10-06T18:44:46.176Z,7.76
2022-10-06T18:49:53.143Z,5.81
2022-10-06T18:55:00.131Z,5.52
2022-10-06T19:00:07.169Z,6.75
2022-10-06T19:05:14.078Z,7.18
2022-10-06T19:10:21.084Z,9.12
2022-10-06T19:15:28.006Z,11.94
2022-10-06T19:20:35.215Z,13.03
2022-10-06T19:25:42.315Z,10.82
2022-10-06T19:30:49.580Z,7.71
2022-10-06T19:35:56.513Z,11.65
2022-10-06T19:41:03.580Z,11.00
2022-10-06T19:46:10.591Z,10.52
2022-10-06T19:51:17.600Z,7.84
2022-10-06T19:56:24.529Z,10.22
2022-10-06T20:06:38.653Z,8.44
2022-10-06T20:11:45.593Z,9.12
2022-10-06T20:42:28.256Z,13.15
